Terminal Aerodrome Forecast
Issued by NWS Cleveland, OH

Home | Current Version | Previous Version | Text Only | Print | Product List | Glossary On
Versions: 1 2 3 4 5 6 7 8 9 10 11 12 13 14 15 16 17 18 19 20 21 22 23 24 25 26 27
150
FTUS41 KCLE 101459 AAB
TAFCLE
TAF AMD
KCLE 101459Z 1015/1118 24012KT P6SM OVC050
     FM102200 24010KT P6SM OVC040
     FM110600 22008KT 4SM -SN OVC025
     FM110800 20006KT 2SM -SN OVC015=

USA.gov is the U.S. government's official web portal to all federal, state and local government web resources and services.